Latest Weather Observations for Montague Island

IDN60801

Issued at 6:32 pm EST Sunday 3 May 2015 (issued every 30 minutes, with the page automatically refreshed every 10 minutes)

About weather observations | Map of weather stations | Latest weather observations for NSW | Other Formats
Station Details ID: 069017 Name: MONTAGUE ISLAND LIGHTHOUSE Lat: -36.25 Lon: 150.23 Height: 52.0 m
Data from the previous 72 hours. | See also: Recent months at Montague Island
Date/Time
EST
Temp
°C
App
Temp
°C
Dew
Point
Rel
Hum
%
Delta-T
°C
Wind Press
QNH
hPa
Press
MSL
hPa
Rain
since 9 am
mm
Dir
 
Spd
km/h
Gust
km/h
Spd
kts
Gust
kts
03/06:30pm 18.3 11.7 15.4 83 1.7 S 44 56 24 30 1016.3 1016.2 0.2
03/06:00pm 18.5 12.3 15.9 85 1.5 S 43 54 23 29 1015.9 1015.8 0.2
03/05:30pm 18.6 12.7 15.8 84 1.7 S 41 52 22 28 1015.5 1015.4 0.2
03/05:00pm 18.9 12.7 15.8 82 1.8 S 43 52 23 28 1015.3 1015.2 0.2
03/04:30pm 19.2 13.4 15.9 81 2.0 S 41 50 22 27 1015.2 1015.1 0.2
03/04:00pm 19.4 12.9 15.5 78 2.3 S 44 52 24 28 1015.1 1015.0 0.2
03/03:30pm 19.7 13.2 15.1 75 2.7 S 43 52 23 28 1014.9 1014.8 0.2
03/03:00pm 20.0 13.5 15.0 73 2.9 S 43 50 23 27 1015.0 1014.9 0.2
03/02:30pm 20.5 14.8 15.3 72 3.1 S 39 50 21 27 1015.0 1014.9 0.2
03/02:00pm 20.6 14.3 14.7 69 3.5 S 41 50 22 27 1015.0 1014.9 0.2
03/01:30pm 20.7 13.9 14.4 67 3.7 S 43 50 23 27 1015.2 1015.1 0.2
03/01:00pm 20.9 14.2 14.5 67 3.7 S 43 50 23 27 1015.4 1015.3 0.2
03/12:30pm 20.9 15.6 15.2 70 3.4 S 37 46 20 25 1015.8 1015.7 0.2
03/12:00pm 20.8 15.7 14.9 69 3.5 SSW 35 44 19 24 1016.0 1015.9 0.2
03/11:30am 20.4 16.0 15.6 74 2.9 SSW 33 39 18 21 1016.2 1016.1 0.2
03/11:00am 20.0 15.2 15.6 76 2.6 SSW 35 44 19 24 1016.5 1016.4 0.2
03/10:30am 19.8 16.6 16.3 80 2.1 SSW 28 35 15 19 1016.7 1016.6 0.0
03/10:00am 19.2 17.2 16.4 84 1.7 SW 22 26 12 14 1016.6 1016.5 0.0
03/09:30am 18.6 16.7 16.6 88 1.2 SSW 22 30 12 16 1016.7 1016.6 0.0
03/09:00am 18.2 16.2 16.4 89 1.1 SW 22 26 12 14 1016.9 1016.8 7.4
03/08:30am 18.1 16.0 16.3 89 1.1 SSW 22 28 12 15 1016.9 1016.8 7.4
03/08:00am 18.1 16.1 16.4 90 1.0 SW 22 28 12 15 1016.8 1016.7 7.4
03/07:30am 18.1 16.2 16.8 92 0.8 SW 22 26 12 14 1016.4 1016.3 7.4
03/07:00am 17.8 16.3 16.7 93 0.7 SW 20 24 11 13 1015.9 1015.8 7.4
03/06:30am 18.0 16.2 17.0 94 0.6 SW 22 26 12 14 1015.8 1015.7 7.4
03/06:00am 17.7 15.9 16.9 95 0.5 SW 22 26 12 14 1015.6 1015.5 7.4
03/05:30am 17.6 15.4 16.8 95 0.5 SW 24 28 13 15 1015.6 1015.5 7.4
03/05:00am 17.7 16.3 17.1 96 0.4 SW 20 26 11 14 1015.4 1015.3 7.4
03/04:30am 17.9 17.6 17.3 96 0.4 SSW 15 20 8 11 1015.5 1015.4 7.4
03/04:00am 17.8 17.8 17.3 97 0.3 SSW 13 15 7 8 1015.6 1015.5 7.4
03/03:30am 17.9 17.6 17.4 97 0.3 SW 15 17 8 9 1015.5 1015.4 7.4
03/03:00am 17.9 16.9 17.6 98 0.2 SW 19 22 10 12 1015.8 1015.7 7.4
03/02:30am 18.2 17.4 17.9 98 0.2 SSW 19 20 10 11 1016.0 1015.9 7.4
03/02:00am 18.1 18.4 17.8 98 0.2 S 13 15 7 8 1016.2 1016.1 7.4
03/01:30am 17.8 17.9 17.5 98 0.2 S 13 15 7 8 1016.6 1016.5 7.4
03/01:00am 17.7 16.6 17.4 98 0.2 SSW 19 22 10 12 1016.9 1016.8 7.4
03/12:30am 17.4 16.0 17.1 98 0.2 SW 20 24 11 13 1017.1 1017.0 7.4
03/12:00am 17.9 17.3 17.6 98 0.2 SW 17 20 9 11 1017.5 1017.4 7.4
 
Date/Time
EST
Temp
°C
App
Temp
°C
Dew
Point
Rel
Hum
%
Delta-T
°C
Wind Press
QNH
hPa
Press
MSL
hPa
Rain
since 9 am
mm
Dir
 
Spd
km/h
Gust
km/h
Spd
kts
Gust
kts
02/11:30pm 18.0 17.8 17.5 97 0.3 SSW 15 19 8 10 1017.8 1017.7 6.6
02/11:00pm 18.0 19.3 17.5 97 0.3 SSW 7 13 4 7 1018.0 1017.9 6.0
02/10:30pm 17.8 18.9 17.2 96 0.4 SW 7 9 4 5 1018.2 1018.1 5.2
02/10:00pm 18.1 20.3 17.5 96 0.4 E 2 6 1 3 1018.1 1018.0 2.0
02/09:30pm 18.6 19.3 17.9 96 0.4 ESE 11 19 6 10 1018.2 1018.1 0.6
02/09:00pm 18.9 19.2 17.9 94 0.6 E 13 15 7 8 1018.0 1017.9 0.4
02/08:30pm 19.2 19.3 17.5 90 1.0 E 13 17 7 9 1018.1 1018.0 0.4
02/08:00pm 19.1 18.7 17.2 89 1.2 E 15 17 8 9 1018.3 1018.2 0.4
02/07:30pm 18.9 17.7 17.0 89 1.2 ENE 19 22 10 12 1018.7 1018.6 0.4
02/07:00pm 18.9 17.2 17.2 90 1.0 NE 22 30 12 16 1018.6 1018.5 0.4
02/06:30pm 19.1 16.9 17.9 93 0.7 NE 26 35 14 19 1018.5 1018.4 0.4
02/06:00pm 20.0 19.8 18.5 91 0.9 NE 17 24 9 13 1018.5 1018.4 0.4
02/05:30pm 19.3 19.9 17.6 90 1.0 ENE 11 13 6 7 1018.3 1018.2 0.4
02/05:00pm 19.0 19.7 17.1 89 1.2 E 9 11 5 6 1018.3 1018.2 0.4
02/04:30pm 19.1 19.7 16.7 86 1.4 E 9 11 5 6 1018.3 1018.2 0.4
02/04:00pm 19.6 19.6 16.3 81 2.0 ENE 11 13 6 7 1018.3 1018.2 0.4
02/03:30pm 19.7 20.2 16.5 82 1.9 ENE 9 11 5 6 1018.6 1018.5 0.4
02/03:00pm 19.8 20.8 16.8 83 1.8 E 7 9 4 5 1018.7 1018.6 0.4
02/02:30pm 19.6 20.6 16.8 84 1.7 E 7 9 4 5 1018.7 1018.6 0.4
02/02:00pm 19.4 20.4 16.8 85 1.6 E 7 9 4 5 1018.9 1018.8 0.4
02/01:30pm 19.8 20.6 17.4 86 1.5 E 9 13 5 7 1019.2 1019.1 0.4
02/01:00pm 19.3 19.9 16.7 85 1.6 E 9 13 5 7 1019.5 1019.4 0.4
02/12:30pm 20.2 21.8 16.8 81 2.1 WSW 4 7 2 4 1019.9 1019.8 0.4
02/12:00pm 19.2 20.2 16.8 86 1.4 WSW 7 11 4 6 1020.5 1020.4 0.4
02/11:30am 18.9 20.2 17.2 90 1.0 SSW 6 9 3 5 1021.0 1020.9 0.4
02/11:00am 18.8 19.7 17.5 92 0.8 SW 9 11 5 6 1021.5 1021.4 0.4
02/10:30am 17.6 18.4 15.9 90 1.0 WNW 6 11 3 6 1022.2 1022.1 0.4
02/10:00am 17.9 18.3 16.2 90 1.0 W 9 13 5 7 1022.4 1022.3 0.0
02/09:30am 17.9 18.7 16.4 91 0.9 SW 7 9 4 5 1022.8 1022.7 0.0
02/09:00am 17.4 17.8 16.3 93 0.7 SSW 9 13 5 7 1023.0 1022.9 8.2
02/08:30am 17.3 18.2 16.5 95 0.5 SW 7 11 4 6 1023.2 1023.1 8.2
02/08:00am 16.6 16.8 15.8 95 0.5 SW 9 11 5 6 1023.0 1022.9 8.2
02/07:30am 16.4 16.2 15.8 96 0.4 SW 11 13 6 7 1022.8 1022.7 8.2
02/07:00am 16.3 15.7 15.7 96 0.4 SW 13 17 7 9 1022.5 1022.4 8.2
02/06:30am 16.0 15.3 15.5 97 0.3 SW 13 15 7 8 1022.5 1022.4 8.2
02/06:00am 15.8 15.1 15.3 97 0.3 SW 13 15 7 8 1022.3 1022.2 8.2
02/05:30am 15.7 14.6 15.2 97 0.3 WSW 15 19 8 10 1022.3 1022.2 8.2
02/05:00am 15.4 13.4 14.9 97 0.3 W 19 22 10 12 1022.2 1022.1 8.2
02/04:30am 16.0 14.6 15.5 97 0.3 WSW 17 22 9 12 1022.4 1022.3 8.2
02/04:00am 15.8 14.7 15.2 96 0.3 SW 15 19 8 10 1022.6 1022.5 7.0
02/03:30am 15.9 15.1 15.1 95 0.5 SSW 13 17 7 9 1022.7 1022.6 6.0
02/03:00am 16.0 15.2 15.0 94 0.6 SW 13 17 7 9 1023.0 1022.9 3.6
02/02:30am 15.8 14.5 14.8 94 0.6 SW 15 17 8 9 1023.1 1023.0 3.6
02/02:00am 15.7 14.8 14.9 95 0.5 SW 13 17 7 9 1023.4 1023.4 3.6
02/01:30am 16.1 13.7 15.3 95 0.5 SW 22 24 12 13 1023.5 1023.5 3.6
02/01:00am 15.9 13.8 15.1 95 0.5 SW 20 26 11 14 1024.0 1024.0 3.6
02/12:30am 15.8 13.6 15.0 95 0.5 WSW 20 26 11 14 1024.5 1024.5 3.6
02/12:00am 16.0 14.0 15.0 94 0.6 W 19 24 10 13 1024.7 1024.7 3.6
 
Date/Time
EST
Temp
°C
App
Temp
°C
Dew
Point
Rel
Hum
%
Delta-T
°C
Wind Press
QNH
hPa
Press
MSL
hPa
Rain
since 9 am
mm
Dir
 
Spd
km/h
Gust
km/h
Spd
kts
Gust
kts
01/11:30pm 16.1 12.3 14.8 92 0.7 SW 28 32 15 17 1024.5 1024.5 2.0
01/11:00pm 16.0 12.6 14.7 92 0.7 SW 26 32 14 17 1024.7 1024.7 2.0
01/10:30pm 16.2 14.5 14.6 90 0.9 SW 17 22 9 12 1024.9 1024.9 1.2
01/10:00pm 16.5 15.2 14.9 90 0.9 WSW 15 19 8 10 1025.0 1025.0 0.6
01/09:30pm 16.7 16.6 14.9 89 1.0 W 9 13 5 7 1025.1 1025.1 0.6
01/09:00pm 16.9 16.7 14.7 87 1.3 SW 9 13 5 7 1025.3 1025.3 0.6
01/08:30pm 17.2 15.5 14.7 85 1.4 WSW 17 20 9 11 1025.6 1025.6 0.0
01/08:00pm 16.9 15.8 14.2 84 1.5 SW 13 17 7 9 1025.9 1025.9 0.0
01/07:30pm 17.2 17.0 14.7 85 1.4 SW 9 13 5 7 1026.2 1026.2 0.0
01/07:00pm 17.5 16.2 14.8 84 1.6 WSW 15 19 8 10 1026.6 1026.6 0.0
01/06:30pm 17.7 17.3 15.1 85 1.5 SW 11 15 6 8 1026.7 1026.7 0.0
01/06:00pm 17.4 16.9 14.9 85 1.4 SW 11 15 6 8 1026.4 1026.4 0.0
01/05:30pm 17.4 17.3 14.9 85 1.5 SW 9 13 5 7 1026.3 1026.3 0.0
01/05:00pm 17.8 16.9 14.9 83 1.7 WSW 13 17 7 9 1026.2 1026.2 0.0
01/04:30pm 18.0 17.7 14.5 80 2.0 WSW 9 13 5 7 1026.2 1026.2 0.0
01/04:00pm 18.7 19.0 14.6 77 2.4 WSW 6 7 3 4 1026.3 1026.3 0.0
01/03:30pm 18.5 18.8 14.6 78 2.3 S 6 9 3 5 1026.4 1026.4 0.0
01/03:00pm 18.4 18.6 14.7 79 2.1 SSW 7 9 4 5 1026.6 1026.6 0.0
01/02:30pm 17.8 17.7 14.9 83 1.7 S 9 13 5 7 1026.8 1026.8 0.0
01/02:00pm 18.1 18.0 15.0 82 1.8 SSW 9 13 5 7 1026.8 1026.8 0.0
01/01:30pm 17.5 17.5 14.2 81 1.9 SE 7 13 4 7 1027.1 1027.1 0.0
01/01:00pm 18.1 17.4 14.4 79 2.1 SSE 11 15 6 8 1027.5 1027.5 0.0
01/12:30pm 18.8 18.2 14.7 77 2.4 SSE 11 15 6 8 1028.0 1028.0 0.0
01/12:00pm 18.9 17.5 14.6 76 2.5 S 15 17 8 9 1028.3 1028.3 0.0
01/11:30am 18.7 17.7 14.6 77 2.4 SSW 13 17 7 9 1029.1 1029.1 0.0
01/11:00am 18.2 17.1 14.3 78 2.2 SSW 13 17 7 9 1029.5 1029.5 0.0
01/10:30am 17.9 16.8 14.2 79 2.1 SSW 13 19 7 10 1029.7 1029.7 0.0
01/10:00am 17.8 16.3 14.1 79 2.1 SSW 15 20 8 11 1030.0 1030.0 0.0
01/09:30am 17.8 16.4 14.5 81 1.9 SSW 15 19 8 10 1030.0 1029.9 0.0
01/09:00am 16.6 14.5 13.5 82 1.7 SW 17 20 9 11 1030.2 1030.1 1.4
01/08:30am 16.7 15.1 13.8 83 1.6 SW 15 20 8 11 1030.2 1030.1 1.4
01/08:00am 16.4 14.9 14.1 86 1.3 SW 15 19 8 10 1030.0 1029.9 1.4
01/07:30am 15.7 13.3 13.9 89 1.0 SW 19 22 10 12 1030.1 1030.0 1.4
01/07:00am 15.7 14.1 13.9 89 1.0 SW 15 19 8 10 1030.0 1029.9 1.4
01/06:30am 15.3 13.7 13.8 91 0.8 SW 15 19 8 10 1030.1 1030.0 1.4
01/06:00am 15.2 13.1 13.7 91 0.8 SSW 17 19 9 10 1030.0 1029.9 1.4
01/05:30am 15.4 14.2 13.9 91 0.8 SW 13 17 7 9 1029.4 1029.3 1.4
01/05:00am 15.2 14.0 13.9 92 0.7 SW 13 15 7 8 1029.4 1029.3 1.4
01/04:30am 15.3 13.7 13.8 91 0.8 WSW 15 20 8 11 1029.4 1029.3 1.4
01/04:00am 15.2 13.5 13.7 91 0.8 SW 15 17 8 9 1029.5 1029.4 1.4
01/03:30am 15.1 13.1 13.8 92 0.7 SW 17 20 9 11 1029.5 1029.4 1.4
01/03:00am 14.9 13.2 13.6 92 0.7 WSW 15 19 8 10 1029.8 1029.7 1.4
01/02:30am 14.8 12.2 13.2 90 0.9 WSW 19 24 10 13 1030.2 1030.1 1.4
01/02:00am 15.5 13.5 13.9 90 0.9 SW 17 20 9 11 1030.4 1030.3 1.2
01/01:30am 15.5 13.4 13.7 89 1.0 SW 17 22 9 12 1030.2 1030.1 1.2
01/01:00am 16.0 14.3 13.5 85 1.4 S 15 22 8 12 1030.6 1030.5 0.0
01/12:30am 16.0 15.1 13.7 86 1.3 W 11 15 6 8 1030.5 1030.4 0.0
01/12:00am 15.7 14.7 13.4 86 1.3 WSW 11 15 6 8 1030.7 1030.6 0.0
 
Date/Time
EST
Temp
°C
App
Temp
°C
Dew
Point
Rel
Hum
%
Delta-T
°C
Wind Press
QNH
hPa
Press
MSL
hPa
Rain
since 9 am
mm
Dir
 
Spd
km/h
Gust
km/h
Spd
kts
Gust
kts
30/11:30pm 15.6 14.9 13.1 85 1.4 WSW 9 13 5 7 1030.7 1030.6 0.0
30/11:00pm 16.2 15.2 13.3 83 1.6 WSW 11 15 6 8 1031.0 1030.9 0.0
30/10:30pm 16.2 14.8 13.3 83 1.6 WSW 13 19 7 10 1031.0 1030.9 0.0
30/10:00pm 16.3 14.1 13.2 82 1.7 SW 17 20 9 11 1031.2 1031.1 0.0
30/09:30pm 16.9 16.2 12.0 73 2.7 S 7 11 4 6 1031.4 1031.3 0.0
30/09:00pm 17.6 16.6 12.3 71 2.9 E 9 13 5 7 1031.5 1031.4 0.0
30/08:30pm 17.6 15.2 12.7 73 2.7 ENE 17 22 9 12 1031.6 1031.6 0.0
30/08:00pm 17.5 15.3 12.2 71 2.9 ENE 15 20 8 11 1031.7 1031.7 0.0
30/07:30pm 17.1 15.8 12.6 75 2.5 E 11 13 6 7 1031.6 1031.6 0.0
30/07:00pm 16.8 12.8 13.1 79 2.1 E 26 33 14 18 1031.4 1031.3 0.0

Other Formats:

Comma delimited format used in spreadsheet applications
http://www.bom.gov.au/fwo/IDN60801/IDN60801.94939.axf

JavaScript Object Notation format (JSON) in row-major order
http://www.bom.gov.au/fwo/IDN60801/IDN60801.94939.json